Terminal Aerodrome Forecast
Issued by NWS

Home | Current Version | Previous Version | Text Only | Print | Product List | Glossary On
Versions: 1 2 3 4 5 6 7 8 9 10 11 12 13 14 15 16 17 18 19 20 21 22 23 24 25 26
194
FTUS41 KPBZ 171139
TAFLBE
TAF
KLBE 171139Z 1712/1812 00000KT 2SM -RA BR BKN045
     FM171700 21009KT 5SM -SHRA OVC015 WS020/20035KT
     FM180300 25008KT P6SM VCSH OVC008=

USA.gov is the U.S. government's official web portal to all federal, state and local government web resources and services.